Time;durP1;ratioP1;P1;durP2;ratioP2;P2;SDS_P1;SDS_P2;PMS_P1;PMS_P2;Temp;Humidity;BMP_temperature;BMP_pressure;BME280_temperature;BME280_humidity;BME280_pressure;Samples;Min_cycle;Max_cycle;Signal;HPM_P1;HPM_P2
2022/03/18 00:00:24;;;;;;;68.93;46.60;;;7.70;99.90;;;;;;5012065;28;20253;-79
2022/03/18 00:02:52;;;;;;;61.90;43.13;;;7.70;99.90;;;;;;4994434;28;20314;-77
2022/03/18 00:05:19;;;;;;;61.70;44.03;;;7.70;99.90;;;;;;5011776;28;20207;-76
2022/03/18 00:07:46;;;;;;;67.17;50.93;;;7.70;99.90;;;;;;4993399;28;20207;-77
2022/03/18 00:10:14;;;;;;;64.03;49.90;;;7.70;99.90;;;;;;5011758;28;20707;-77
2022/03/18 00:12:41;;;;;;;59.57;45.93;;;7.80;99.90;;;;;;5012247;28;20240;-78
2022/03/18 00:15:11;;;;;;;66.13;44.87;;;7.80;99.90;;;;;;5012568;28;20262;-75
2022/03/18 00:17:39;;;;;;;69.43;51.17;;;7.80;99.90;;;;;;5011153;28;20190;-76
2022/03/18 00:20:09;;;;;;;63.87;41.80;;;7.70;99.90;;;;;;5011578;28;20207;-76
2022/03/18 00:22:36;;;;;;;66.83;46.33;;;7.70;99.90;;;;;;5011272;28;20228;-77
2022/03/18 00:25:04;;;;;;;65.13;43.33;;;7.70;99.90;;;;;;4994226;28;20273;-78
2022/03/18 00:27:31;;;;;;;62.97;42.37;;;7.80;99.90;;;;;;5011165;28;20629;-76
2022/03/18 00:29:58;;;;;;;71.33;54.27;;;7.80;99.90;;;;;;4994148;28;20582;-76
2022/03/18 00:32:28;;;;;;;67.83;47.83;;;7.80;99.90;;;;;;4994239;28;20206;-78
2022/03/18 00:34:55;;;;;;;71.00;47.97;;;7.70;99.90;;;;;;4993904;28;20206;-75
2022/03/18 00:37:22;;;;;;;76.07;48.87;;;7.70;99.90;;;;;;5010712;28;20204;-77
2022/03/18 00:39:48;;;;;;;69.93;47.43;;;7.70;99.90;;;;;;4994499;28;20566;-76
2022/03/18 00:42:15;;;;;;;64.00;43.67;;;7.60;99.90;;;;;;5011817;28;20223;-77
2022/03/18 00:44:42;;;;;;;62.30;42.97;;;7.60;99.90;;;;;;5011983;28;20257;-77
2022/03/18 00:52:37;;;;;;;62.80;45.33;;;7.70;99.90;;;;;;4986509;28;20601;-76
2022/03/18 00:55:05;;;;;;;61.20;45.67;;;7.60;99.90;;;;;;5013602;28;20199;-78
2022/03/18 00:57:32;;;;;;;59.23;40.13;;;7.60;99.90;;;;;;5014533;28;20209;-77
2022/03/18 00:59:59;;;;;;;63.23;41.60;;;7.60;99.90;;;;;;4996705;28;20260;-76
2022/03/18 01:02:25;;;;;;;67.70;47.90;;;7.60;99.90;;;;;;5015459;28;20219;-78
2022/03/18 01:04:54;;;;;;;62.07;40.27;;;7.60;99.90;;;;;;5015806;28;20204;-77
2022/03/18 01:07:20;;;;;;;60.80;41.83;;;7.60;99.90;;;;;;5014202;28;20257;-77
2022/03/18 01:09:47;;;;;;;65.30;44.87;;;7.60;99.90;;;;;;5014839;28;20208;-76
2022/03/18 01:12:14;;;;;;;52.97;36.70;;;7.60;99.90;;;;;;5014961;28;20611;-77
2022/03/18 01:14:41;;;;;;;53.67;40.23;;;7.60;99.90;;;;;;5014939;28;20198;-77
2022/03/18 01:17:08;;;;;;;50.60;35.90;;;7.60;99.90;;;;;;5014394;28;20205;-78
2022/03/18 01:19:37;;;;;;;49.77;35.27;;;7.60;99.90;;;;;;5015075;28;20248;-77
2022/03/18 01:22:05;;;;;;;56.27;40.10;;;7.60;99.90;;;;;;5014593;28;20566;-77
2022/03/18 01:24:32;;;;;;;52.90;39.10;;;7.60;99.90;;;;;;5080756;22;20236;-77
2022/03/18 01:26:59;;;;;;;51.77;35.10;;;7.60;99.90;;;;;;5066243;28;20196;-77
2022/03/18 01:29:26;;;;;;;49.17;34.60;;;7.60;99.90;;;;;;5063763;28;20209;-78
2022/03/18 01:31:53;;;;;;;48.13;35.10;;;7.60;99.90;;;;;;5065030;28;20197;-76
2022/03/18 01:34:19;;;;;;;46.73;33.00;;;7.60;99.90;;;;;;5062707;28;20647;-77
2022/03/18 01:36:46;;;;;;;45.47;33.73;;;7.60;99.90;;;;;;5060905;28;20200;-77
2022/03/18 01:39:14;;;;;;;45.23;36.03;;;7.60;99.90;;;;;;5067341;28;20196;-76
2022/03/18 01:41:41;;;;;;;49.13;37.60;;;7.60;99.90;;;;;;5062075;28;20803;-77
2022/03/18 01:44:10;;;;;;;50.23;41.17;;;7.60;99.90;;;;;;5068169;28;20311;-76
2022/03/18 01:46:38;;;;;;;45.87;36.33;;;7.50;99.90;;;;;;5061379;28;20197;-77
2022/03/18 01:49:05;;;;;;;45.30;31.83;;;7.50;99.90;;;;;;5069053;28;20196;-77
2022/03/18 01:51:33;;;;;;;39.50;29.23;;;7.50;99.90;;;;;;5060517;28;20196;-76
2022/03/18 01:56:42;;;;;;;40.93;29.00;;;7.50;99.90;;;;;;5055616;28;20927;-76
2022/03/18 01:59:09;;;;;;;41.83;31.87;;;7.50;99.90;;;;;;5063601;28;20217;-77
2022/03/18 02:01:36;;;;;;;46.70;37.27;;;7.50;99.90;;;;;;5063734;28;20287;-77
2022/03/18 02:04:03;;;;;;;41.40;32.27;;;7.50;99.90;;;;;;5063833;28;20216;-77
2022/03/18 02:06:30;;;;;;;40.77;30.97;;;7.50;99.90;;;;;;5059864;28;20246;-76
2022/03/18 02:08:57;;;;;;;36.00;26.67;;;7.50;99.90;;;;;;5065345;28;20193;-77
2022/03/18 02:11:25;;;;;;;34.80;26.47;;;7.50;99.90;;;;;;5063920;28;20209;-77
2022/03/18 02:13:57;;;;;;;38.93;27.77;;;7.50;99.90;;;;;;5072301;28;20229;-76
2022/03/18 02:16:24;;;;;;;40.93;29.77;;;7.50;99.90;;;;;;5060655;28;20590;-77
2022/03/18 02:18:51;;;;;;;36.57;29.33;;;7.50;99.90;;;;;;5062677;28;20193;-76
2022/03/18 02:21:19;;;;;;;42.37;32.93;;;7.50;99.90;;;;;;5056691;28;20218;-77
2022/03/18 02:23:47;;;;;;;40.83;29.50;;;7.40;99.90;;;;;;5059011;28;20224;-78
2022/03/18 02:26:15;;;;;;;40.47;30.77;;;7.40;99.90;;;;;;5061135;28;20206;-78
2022/03/18 02:28:42;;;;;;;42.87;33.13;;;7.40;99.90;;;;;;5060734;28;20266;-77
2022/03/18 02:31:09;;;;;;;39.27;28.83;;;7.40;99.90;;;;;;5062262;28;20761;-77
2022/03/18 02:33:36;;;;;;;41.40;32.67;;;7.40;99.90;;;;;;5065186;28;20565;-77
2022/03/18 02:36:03;;;;;;;41.00;28.43;;;7.40;99.90;;;;;;5059940;28;20576;-77
2022/03/18 02:38:31;;;;;;;38.17;26.97;;;7.40;99.90;;;;;;5057947;28;20207;-78
2022/03/18 02:40:59;;;;;;;32.83;27.23;;;7.40;99.90;;;;;;5059868;28;20193;-78
2022/03/18 02:43:26;;;;;;;36.03;28.73;;;7.40;99.90;;;;;;5061892;28;20222;-77
2022/03/18 02:45:53;;;;;;;36.23;32.30;;;7.40;99.90;;;;;;5061238;28;20232;-77
2022/03/18 02:48:20;;;;;;;35.03;24.97;;;7.30;99.90;;;;;;5059238;28;20283;-77
2022/03/18 02:50:46;;;;;;;36.10;26.87;;;7.40;99.90;;;;;;5066859;28;20200;-76
2022/03/18 02:53:13;;;;;;;36.43;26.80;;;7.40;99.90;;;;;;5062641;28;20214;-77
2022/03/18 02:55:40;;;;;;;39.37;31.77;;;7.40;99.90;;;;;;5059245;28;20663;-77
2022/03/18 02:58:08;;;;;;;37.47;30.47;;;7.40;99.90;;;;;;5056060;28;20261;-76
2022/03/18 03:00:35;;;;;;;36.43;27.57;;;7.40;99.90;;;;;;5060526;28;20196;-78
2022/03/18 03:03:02;;;;;;;33.13;25.27;;;7.40;99.90;;;;;;5061300;28;20221;-76
2022/03/18 03:08:13;;;;;;;38.20;26.83;;;7.30;99.90;;;;;;5060772;28;20276;-78
2022/03/18 03:10:42;;;;;;;36.37;30.17;;;7.30;99.90;;;;;;5063003;28;20583;-77
2022/03/18 03:13:10;;;;;;;33.90;25.23;;;7.30;99.90;;;;;;5064463;28;20761;-78
2022/03/18 03:15:39;;;;;;;34.43;25.37;;;7.30;99.90;;;;;;5060558;28;20291;-78
2022/03/18 03:18:06;;;;;;;37.50;27.87;;;7.30;99.90;;;;;;5068597;28;20255;-78
2022/03/18 03:20:33;;;;;;;31.67;26.57;;;7.30;99.90;;;;;;5063686;28;20201;-78
2022/03/18 03:23:01;;;;;;;34.37;28.13;;;7.30;99.90;;;;;;5071530;28;20219;-76
2022/03/18 03:25:28;;;;;;;34.13;25.57;;;7.30;99.90;;;;;;5032406;28;20224;-76
2022/03/18 03:27:55;;;;;;;35.57;26.17;;;7.30;99.90;;;;;;5037474;28;20185;-76
2022/03/18 03:30:24;;;;;;;32.83;23.57;;;7.30;99.90;;;;;;5061876;28;20231;-77
2022/03/18 03:32:52;;;;;;;30.23;23.50;;;7.30;99.90;;;;;;5061377;28;20183;-76
2022/03/18 03:35:19;;;;;;;33.60;28.30;;;7.30;99.90;;;;;;5062275;28;20628;-76
2022/03/18 03:37:46;;;;;;;33.57;23.53;;;7.30;99.90;;;;;;5059160;28;20205;-76
2022/03/18 03:40:14;;;;;;;31.47;25.70;;;7.30;99.90;;;;;;5061698;28;20200;-77
2022/03/18 03:42:42;;;;;;;34.57;27.10;;;7.30;99.90;;;;;;5057208;28;20307;-77
2022/03/18 03:45:10;;;;;;;36.50;27.87;;;7.30;99.90;;;;;;5052945;28;20207;-76
2022/03/18 03:47:39;;;;;;;35.30;28.50;;;7.30;99.90;;;;;;5068130;28;20207;-77
2022/03/18 03:50:07;;;;;;;38.30;30.10;;;7.30;99.90;;;;;;5062025;28;20228;-78
2022/03/18 03:52:35;;;;;;;33.40;25.53;;;7.20;99.90;;;;;;5059288;28;20589;-77
2022/03/18 03:55:02;;;;;;;35.83;28.77;;;7.20;99.90;;;;;;5060550;28;20203;-80
2022/03/18 03:57:29;;;;;;;34.80;26.00;;;7.20;99.90;;;;;;5051417;28;20684;-77
2022/03/18 03:59:56;;;;;;;37.47;27.80;;;7.20;99.90;;;;;;5061673;28;20201;-77
2022/03/18 04:02:22;;;;;;;36.30;26.10;;;7.20;99.90;;;;;;5055178;28;20227;-77
2022/03/18 04:04:51;;;;;;;35.27;26.50;;;7.20;99.90;;;;;;5058456;28;20228;-77
2022/03/18 04:07:18;;;;;;;32.67;27.40;;;7.20;99.90;;;;;;5064165;28;20203;-79
2022/03/18 04:09:46;;;;;;;34.80;28.97;;;7.20;99.90;;;;;;5060755;28;20715;-79
2022/03/18 04:12:13;;;;;;;35.97;27.33;;;7.20;99.90;;;;;;5060495;28;20198;-77
2022/03/18 04:14:40;;;;;;;32.63;25.00;;;7.20;99.90;;;;;;5055839;28;20227;-79
2022/03/18 04:17:07;;;;;;;41.77;34.30;;;7.20;99.90;;;;;;5067252;28;20231;-77
2022/03/18 04:19:34;;;;;;;35.77;27.07;;;7.20;99.90;;;;;;5060266;28;20300;-77
2022/03/18 04:22:02;;;;;;;38.53;26.70;;;7.20;99.90;;;;;;5054210;28;20305;-77
2022/03/18 04:24:29;;;;;;;41.57;32.73;;;7.20;99.90;;;;;;5047214;28;20741;-79
2022/03/18 04:26:56;;;;;;;35.97;25.17;;;7.20;99.90;;;;;;5061556;28;20538;-80
2022/03/18 04:29:23;;;;;;;38.00;28.30;;;7.20;99.90;;;;;;5061246;28;20196;-79
2022/03/18 04:31:50;;;;;;;35.27;26.50;;;7.20;99.90;;;;;;5062294;28;20245;-80
2022/03/18 04:34:17;;;;;;;35.27;26.23;;;7.20;99.90;;;;;;5062457;28;20759;-79
2022/03/18 04:36:44;;;;;;;45.13;30.90;;;7.20;99.90;;;;;;5062250;28;20290;-80
2022/03/18 04:39:12;;;;;;;38.50;32.97;;;7.10;99.90;;;;;;5067107;28;20417;-80
2022/03/18 04:41:39;;;;;;;39.30;33.97;;;7.20;99.90;;;;;;5067156;28;20184;-80
2022/03/18 04:44:07;;;;;;;37.77;33.57;;;7.10;99.90;;;;;;5071163;28;20235;-80
2022/03/18 04:46:34;;;;;;;38.60;31.57;;;7.10;99.90;;;;;;5061972;28;20205;-80
2022/03/18 04:49:00;;;;;;;36.37;30.43;;;7.10;99.90;;;;;;5062842;28;20196;-80
2022/03/18 04:51:28;;;;;;;35.90;29.37;;;7.10;99.90;;;;;;5063878;28;20691;-82
2022/03/18 04:53:55;;;;;;;38.07;32.20;;;7.10;99.90;;;;;;5062643;28;20218;-81
2022/03/18 04:59:07;;;;;;;37.40;27.27;;;7.10;99.90;;;;;;5066691;28;20213;-81
2022/03/18 05:01:34;;;;;;;37.67;30.50;;;7.10;99.90;;;;;;5064502;28;20568;-81
2022/03/18 05:04:01;;;;;;;37.47;26.33;;;7.10;99.90;;;;;;5063758;28;20220;-80
2022/03/18 05:06:28;;;;;;;38.07;29.70;;;7.10;99.90;;;;;;5054616;28;20630;-81
2022/03/18 05:08:54;;;;;;;39.33;33.73;;;7.10;99.90;;;;;;5065115;28;20666;-82
2022/03/18 05:11:23;;;;;;;40.53;36.10;;;7.10;99.90;;;;;;5062508;28;20231;-81
2022/03/18 05:13:49;;;;;;;38.27;33.37;;;7.10;99.90;;;;;;5060686;28;20222;-81
2022/03/18 05:16:16;;;;;;;41.73;35.00;;;7.10;99.90;;;;;;5064248;28;20211;-81
2022/03/18 05:18:43;;;;;;;39.57;34.07;;;7.10;99.90;;;;;;5070185;28;20200;-80
2022/03/18 05:21:10;;;;;;;39.07;33.47;;;7.10;99.90;;;;;;5074518;28;20205;-82
2022/03/18 05:23:37;;;;;;;38.53;33.43;;;7.10;99.90;;;;;;5086665;28;20216;-80
2022/03/18 05:26:07;;;;;;;45.23;35.60;;;7.10;99.90;;;;;;5080899;28;20357;-82
2022/03/18 05:28:36;;;;;;;41.03;33.70;;;7.10;99.90;;;;;;5078614;28;20195;-80
2022/03/18 05:31:02;;;;;;;38.70;25.67;;;7.10;99.90;;;;;;5065266;28;20196;-81
2022/03/18 05:33:29;;;;;;;39.07;24.87;;;7.10;99.90;;;;;;5076741;28;20211;-81
2022/03/18 05:35:56;;;;;;;43.43;29.83;;;7.10;99.90;;;;;;5075389;28;20203;-82
2022/03/18 05:38:23;;;;;;;38.50;27.37;;;7.10;99.90;;;;;;5076009;28;20195;-81
2022/03/18 05:40:50;;;;;;;41.27;28.03;;;7.10;99.90;;;;;;5068571;28;20200;-81
2022/03/18 05:43:17;;;;;;;37.53;27.93;;;7.10;99.90;;;;;;5068912;28;20224;-81
2022/03/18 05:45:45;;;;;;;45.90;37.60;;;7.10;99.90;;;;;;5065514;28;20196;-81
2022/03/18 05:48:12;;;;;;;42.47;30.93;;;7.00;99.90;;;;;;5065353;28;20286;-81
2022/03/18 05:50:40;;;;;;;41.13;35.73;;;7.00;99.90;;;;;;5064951;28;20218;-81
2022/03/18 05:53:07;;;;;;;42.03;28.67;;;7.10;99.90;;;;;;5063413;28;20270;-82
2022/03/18 05:58:15;;;;;;;45.10;34.03;;;7.10;99.90;;;;;;5063203;28;20197;-81
2022/03/18 06:00:42;;;;;;;45.20;30.73;;;7.00;99.90;;;;;;5072526;28;20203;-80
2022/03/18 06:03:12;;;;;;;41.40;32.33;;;7.00;99.90;;;;;;5068907;28;20227;-82
2022/03/18 06:05:39;;;;;;;46.13;36.70;;;7.10;99.90;;;;;;5067130;28;20253;-81
2022/03/18 06:13:35;;;;;;;40.90;31.60;;;7.10;99.90;;;;;;5054941;28;20211;-81
2022/03/18 06:16:02;;;;;;;43.30;33.00;;;7.10;99.90;;;;;;5060537;28;20201;-81
2022/03/18 06:18:30;;;;;;;42.53;35.23;;;7.10;99.90;;;;;;5053881;28;20201;-81
2022/03/18 06:20:57;;;;;;;44.17;36.77;;;7.10;99.90;;;;;;5063475;28;20203;-81
2022/03/18 06:23:24;;;;;;;36.40;25.97;;;7.10;99.90;;;;;;5062846;28;20282;-81
2022/03/18 06:25:51;;;;;;;43.83;33.27;;;7.10;99.90;;;;;;5062955;28;20226;-81
2022/03/18 06:28:18;;;;;;;50.07;30.20;;;7.20;99.90;;;;;;5072488;28;20683;-81
2022/03/18 06:30:45;;;;;;;43.60;35.17;;;7.20;99.90;;;;;;5074177;28;20196;-81
2022/03/18 06:33:12;;;;;;;41.17;27.27;;;7.20;99.90;;;;;;5056695;28;20586;-81
2022/03/18 06:35:40;;;;;;;41.60;32.40;;;7.20;99.90;;;;;;5053954;28;20243;-81
2022/03/18 06:38:08;;;;;;;49.30;39.30;;;7.20;99.90;;;;;;5053267;28;20254;-82
2022/03/18 06:40:35;;;;;;;41.87;34.00;;;7.20;99.90;;;;;;5054511;28;20200;-80
2022/03/18 06:43:01;;;;;;;43.03;33.23;;;7.20;99.90;;;;;;5054052;28;20611;-81
2022/03/18 06:45:28;;;;;;;42.53;30.23;;;7.20;99.90;;;;;;5057496;28;20200;-81
2022/03/18 06:47:55;;;;;;;41.13;29.27;;;7.20;99.90;;;;;;5060772;28;20192;-82
2022/03/18 06:50:22;;;;;;;41.87;27.33;;;7.20;99.90;;;;;;5065076;28;20195;-81
2022/03/18 06:52:50;;;;;;;41.77;30.30;;;7.20;99.90;;;;;;5057406;28;20903;-81
2022/03/18 06:55:17;;;;;;;39.30;28.00;;;7.20;99.90;;;;;;5065662;28;20217;-81
2022/03/18 06:57:44;;;;;;;38.90;30.50;;;7.20;99.90;;;;;;5054906;28;20559;-82
2022/03/18 07:00:11;;;;;;;38.37;31.47;;;7.20;99.90;;;;;;5057478;28;20217;-79
2022/03/18 07:02:38;;;;;;;40.40;31.83;;;7.20;99.90;;;;;;5060394;28;20227;-81
2022/03/18 07:05:06;;;;;;;39.17;27.53;;;7.30;99.90;;;;;;5062444;28;20253;-81
2022/03/18 07:07:34;;;;;;;35.47;26.30;;;7.30;99.90;;;;;;5064476;28;20682;-81
2022/03/18 07:10:02;;;;;;;37.30;27.97;;;7.30;99.90;;;;;;5058490;28;20205;-80
2022/03/18 07:12:29;;;;;;;44.03;29.43;;;7.30;99.90;;;;;;5059572;28;20191;-81
2022/03/18 07:14:56;;;;;;;39.87;28.40;;;7.30;99.90;;;;;;5063929;28;20243;-81
2022/03/18 07:20:09;;;;;;;44.20;31.37;;;7.50;99.90;;;;;;5058175;28;20556;-81
2022/03/18 07:22:36;;;;;;;43.50;29.73;;;7.50;99.90;;;;;;5062325;28;20660;-81
2022/03/18 07:25:05;;;;;;;46.10;30.03;;;7.50;99.90;;;;;;5057613;22;20272;-77
2022/03/18 07:27:32;;;;;;;44.50;30.57;;;7.60;99.90;;;;;;5021994;28;20204;-77
2022/03/18 07:29:59;;;;;;;41.27;29.03;;;7.60;99.90;;;;;;5020805;28;20730;-77
2022/03/18 07:32:26;;;;;;;41.77;27.17;;;7.60;99.90;;;;;;5028634;28;20204;-77
2022/03/18 07:34:52;;;;;;;42.80;28.60;;;7.70;99.90;;;;;;5025160;28;20569;-78
2022/03/18 07:37:19;;;;;;;37.23;28.23;;;7.80;99.90;;;;;;5027975;28;20210;-77
2022/03/18 07:39:46;;;;;;;43.93;30.10;;;7.80;99.90;;;;;;5030497;28;20198;-77
2022/03/18 07:42:14;;;;;;;48.00;31.97;;;7.80;99.90;;;;;;5028948;28;20220;-78
2022/03/18 07:44:41;;;;;;;44.60;30.90;;;7.80;99.90;;;;;;5031802;28;20217;-78
2022/03/18 07:47:09;;;;;;;43.67;31.27;;;7.80;99.90;;;;;;5031039;28;20203;-78
2022/03/18 07:49:35;;;;;;;47.03;31.77;;;7.90;99.90;;;;;;5024582;28;20238;-79
2022/03/18 07:52:02;;;;;;;45.90;32.43;;;7.80;99.90;;;;;;5030370;28;20570;-78
2022/03/18 07:54:29;;;;;;;45.67;31.07;;;7.80;99.90;;;;;;5027597;28;20284;-77
2022/03/18 07:56:56;;;;;;;45.23;31.60;;;7.80;99.90;;;;;;5026306;28;20557;-77
2022/03/18 07:59:24;;;;;;;40.50;29.80;;;7.90;99.90;;;;;;5030613;28;20208;-77
2022/03/18 08:01:51;;;;;;;46.63;31.97;;;7.90;99.90;;;;;;5030502;28;20192;-78
2022/03/18 08:04:18;;;;;;;48.17;33.60;;;7.90;99.90;;;;;;5026516;28;20233;-77
2022/03/18 08:06:45;;;;;;;50.23;32.67;;;7.90;99.90;;;;;;5029545;28;20201;-77
2022/03/18 08:09:12;;;;;;;47.30;33.97;;;8.00;99.90;;;;;;5029680;28;20200;-77
2022/03/18 08:11:38;;;;;;;51.93;33.13;;;7.90;99.90;;;;;;5031124;28;20202;-77
2022/03/18 08:14:05;;;;;;;45.23;32.00;;;7.80;99.90;;;;;;5031147;28;20330;-77
2022/03/18 08:16:34;;;;;;;50.13;33.53;;;7.90;99.90;;;;;;5029526;28;20194;-77
2022/03/18 08:19:00;;;;;;;43.17;31.00;;;7.90;99.90;;;;;;5031297;28;20760;-77
2022/03/18 08:21:30;;;;;;;47.07;33.37;;;7.90;99.90;;;;;;5021663;28;20210;-77
2022/03/18 08:23:57;;;;;;;50.30;33.73;;;7.80;99.90;;;;;;5027977;28;20279;-77
2022/03/18 08:26:24;;;;;;;50.43;33.03;;;7.80;99.90;;;;;;5029908;28;20193;-77
2022/03/18 08:28:51;;;;;;;47.60;33.37;;;7.90;99.90;;;;;;5030050;28;20247;-77
2022/03/18 08:31:17;;;;;;;52.63;33.63;;;7.90;99.90;;;;;;5029975;28;20688;-78
2022/03/18 08:33:46;;;;;;;52.37;33.97;;;7.90;99.90;;;;;;5029644;28;20225;-77
2022/03/18 08:36:13;;;;;;;44.40;31.60;;;8.00;99.90;;;;;;5024438;28;20215;-77
2022/03/18 08:38:40;;;;;;;41.67;29.50;;;8.00;99.90;;;;;;5025795;28;20251;-77
2022/03/18 08:41:07;;;;;;;45.77;31.53;;;8.10;99.90;;;;;;5026316;28;20207;-77
2022/03/18 08:43:34;;;;;;;48.00;32.50;;;8.10;99.90;;;;;;5028520;28;20215;-77
2022/03/18 08:46:01;;;;;;;46.43;32.37;;;8.20;99.90;;;;;;5023247;28;20209;-77
2022/03/18 08:48:28;;;;;;;48.20;32.90;;;8.20;99.90;;;;;;5028270;28;20197;-77
2022/03/18 08:50:56;;;;;;;47.40;32.67;;;8.30;99.90;;;;;;5029747;28;20202;-77
2022/03/18 08:53:23;;;;;;;43.23;31.50;;;8.30;99.90;;;;;;5028659;28;20273;-77
2022/03/18 08:55:50;;;;;;;49.87;32.67;;;8.30;99.90;;;;;;5030700;28;20205;-77
2022/03/18 08:58:17;;;;;;;46.30;32.40;;;8.30;99.90;;;;;;5024353;28;20210;-78
2022/03/18 09:00:45;;;;;;;47.27;33.03;;;8.30;99.90;;;;;;5027489;28;20551;-77
2022/03/18 09:03:12;;;;;;;48.13;33.97;;;8.40;99.90;;;;;;5028159;28;20628;-77
2022/03/18 09:05:39;;;;;;;44.63;31.40;;;8.50;99.90;;;;;;5029130;28;20196;-77
2022/03/18 09:08:07;;;;;;;48.53;33.13;;;8.70;99.90;;;;;;5029625;28;20200;-77
2022/03/18 09:10:34;;;;;;;43.60;31.17;;;8.70;99.90;;;;;;5027813;28;20196;-77
2022/03/18 09:13:01;;;;;;;47.17;30.30;;;8.90;99.90;;;;;;5029071;28;20239;-77
2022/03/18 09:15:29;;;;;;;43.57;30.47;;;9.20;99.90;;;;;;5022757;28;20192;-78
2022/03/18 09:17:56;;;;;;;44.30;30.27;;;9.40;99.90;;;;;;5033442;28;20272;-76
2022/03/18 09:20:23;;;;;;;44.93;31.43;;;9.50;99.90;;;;;;5032409;28;20212;-78
2022/03/18 09:22:50;;;;;;;43.90;30.37;;;9.50;99.90;;;;;;5028023;28;20195;-77
2022/03/18 09:25:20;;;;;;;42.53;29.93;;;9.50;99.90;;;;;;5032744;28;20447;-78
2022/03/18 09:27:47;;;;;;;42.10;30.57;;;9.60;99.90;;;;;;5029657;28;20204;-77
2022/03/18 09:30:14;;;;;;;39.13;30.20;;;9.70;99.90;;;;;;5031340;28;20214;-77
2022/03/18 09:32:42;;;;;;;41.87;30.03;;;9.80;99.90;;;;;;5026094;28;20661;-77
2022/03/18 09:35:10;;;;;;;39.33;29.27;;;9.70;99.90;;;;;;5030338;28;20684;-77
2022/03/18 09:37:37;;;;;;;38.93;30.37;;;9.80;99.90;;;;;;5033635;28;20204;-78
2022/03/18 09:40:05;;;;;;;40.60;29.47;;;9.80;99.90;;;;;;5031949;28;20192;-78
2022/03/18 09:42:33;;;;;;;39.50;29.07;;;9.90;99.90;;;;;;5032810;28;20204;-78
2022/03/18 09:45:00;;;;;;;44.60;31.47;;;9.80;99.90;;;;;;5032556;28;20232;-77
2022/03/18 09:47:29;;;;;;;40.40;28.93;;;9.80;99.90;;;;;;5027623;28;20199;-78
2022/03/18 09:49:56;;;;;;;37.23;28.60;;;9.80;99.90;;;;;;5030159;28;20204;-77
2022/03/18 09:52:23;;;;;;;41.63;30.40;;;9.80;99.90;;;;;;5030143;28;20217;-77
2022/03/18 09:54:50;;;;;;;41.50;30.63;;;9.70;99.90;;;;;;5032390;28;20560;-77
2022/03/18 09:57:17;;;;;;;36.57;28.07;;;9.90;99.90;;;;;;5034412;28;20207;-78
2022/03/18 09:59:45;;;;;;;41.27;28.77;;;10.20;99.90;;;;;;5031492;28;20677;-77
2022/03/18 10:02:26;;;;;;;41.27;30.50;;;10.30;99.90;;;;;;5033471;28;20204;-78
2022/03/18 10:04:55;;;;;;;37.60;27.73;;;10.10;99.90;;;;;;5032269;28;20227;-78
2022/03/18 10:07:22;;;;;;;39.63;28.57;;;10.30;99.90;;;;;;5029980;28;20202;-77
2022/03/18 10:09:49;;;;;;;36.53;27.77;;;10.40;99.90;;;;;;5026877;28;20192;-79
2022/03/18 10:12:29;;;;;;;38.47;28.47;;;10.60;99.90;;;;;;5029344;28;20196;-78
2022/03/18 10:15:10;;;;;;;38.03;28.60;;;10.40;99.90;;;;;;5031592;28;20219;-77
2022/03/18 10:17:48;;;;;;;38.53;28.30;;;10.40;99.90;;;;;;5022748;28;20258;-77
2022/03/18 10:20:29;;;;;;;38.50;28.57;;;10.40;99.90;;;;;;5030596;28;20254;-78
2022/03/18 10:22:59;;;;;;;37.37;26.87;;;10.50;99.90;;;;;;5032332;28;20211;-77
2022/03/18 10:25:50;;;;;;;33.93;26.33;;;10.60;99.90;;;;;;5032021;28;20231;-78
2022/03/18 10:28:19;;;;;;;36.43;27.37;;;10.80;99.90;;;;;;5031387;28;20214;-78
2022/03/18 10:30:47;;;;;;;35.00;27.70;;;10.70;99.90;;;;;;5031731;28;20230;-77
2022/03/18 10:33:14;;;;;;;35.90;27.10;;;10.70;99.90;;;;;;5029432;28;20196;-77
2022/03/18 10:38:30;;;;;;;34.47;27.03;;;10.80;99.90;;;;;;5029702;28;20215;-77
2022/03/18 10:40:59;;;;;;;37.43;28.30;;;10.90;99.90;;;;;;5029526;28;20197;-77
2022/03/18 10:43:26;;;;;;;32.60;25.27;;;10.80;99.90;;;;;;5031402;28;20423;-77
2022/03/18 10:46:05;;;;;;;33.80;26.10;;;10.80;99.90;;;;;;5024679;28;20659;-77
2022/03/18 10:48:32;;;;;;;33.33;25.77;;;10.70;99.90;;;;;;5030395;28;20279;-77
2022/03/18 10:51:06;;;;;;;33.17;25.43;;;10.80;99.90;;;;;;5032652;28;20201;-78
2022/03/18 10:53:34;;;;;;;34.60;25.47;;;10.70;99.90;;;;;;5029238;28;20219;-78
2022/03/18 10:56:03;;;;;;;36.00;26.73;;;10.70;99.90;;;;;;5030267;28;20195;-79
2022/03/18 10:58:32;;;;;;;33.93;25.60;;;10.80;99.90;;;;;;5017924;28;20679;-79
2022/03/18 11:01:02;;;;;;;34.47;26.80;;;10.80;99.90;;;;;;5024987;28;20271;-77
2022/03/18 11:03:31;;;;;;;31.47;24.33;;;10.80;99.90;;;;;;5030568;28;20223;-78
2022/03/18 11:06:02;;;;;;;31.73;25.43;;;10.70;99.90;;;;;;5034239;28;20192;-79
2022/03/18 11:08:36;;;;;;;30.77;24.67;;;10.70;99.90;;;;;;5031652;28;20266;-77
2022/03/18 11:11:11;;;;;;;30.53;25.03;;;10.90;99.90;;;;;;5030037;28;20714;-78
2022/03/18 11:13:47;;;;;;;37.57;26.33;;;11.00;99.90;;;;;;5028105;28;20242;-77
2022/03/18 11:16:19;;;;;;;35.10;28.03;;;11.00;99.90;;;;;;5029325;28;20224;-79
2022/03/18 11:18:48;;;;;;;31.97;26.93;;;11.20;99.90;;;;;;5028913;28;20744;-77
2022/03/18 11:21:16;;;;;;;33.37;29.37;;;11.10;99.90;;;;;;5022858;28;20208;-77
2022/03/18 11:23:45;;;;;;;32.83;29.47;;;11.20;99.90;;;;;;5022553;28;20234;-77
2022/03/18 11:26:15;;;;;;;34.67;29.93;;;11.20;99.90;;;;;;5031997;28;20231;-77
2022/03/18 11:28:42;;;;;;;33.73;25.53;;;11.30;99.90;;;;;;5028835;28;20210;-78
2022/03/18 11:31:10;;;;;;;33.63;30.13;;;11.50;99.90;;;;;;5031314;28;20201;-77
2022/03/18 11:33:39;;;;;;;35.13;31.47;;;11.50;99.90;;;;;;5029908;28;20228;-78
2022/03/18 11:36:16;;;;;;;36.13;31.63;;;11.50;99.90;;;;;;5022225;28;20199;-78
2022/03/18 11:39:10;;;;;;;34.73;31.07;;;11.50;99.90;;;;;;5026278;28;20207;-77
2022/03/18 11:41:49;;;;;;;34.07;30.47;;;11.40;99.90;;;;;;5029584;28;20194;-79
2022/03/18 11:44:46;;;;;;;36.60;30.40;;;11.30;99.90;;;;;;5030690;28;20246;-78
2022/03/18 11:47:38;;;;;;;36.00;30.97;;;11.20;99.90;;;;;;5023777;28;20296;-77
2022/03/18 11:50:40;;;;;;;34.37;30.60;;;11.40;99.90;;;;;;5026735;28;20204;-77
2022/03/18 11:53:08;;;;;;;36.50;30.93;;;11.50;99.90;;;;;;5028866;28;20576;-77
2022/03/18 11:55:35;;;;;;;33.23;29.20;;;11.40;99.90;;;;;;5028843;28;20243;-78
2022/03/18 11:58:01;;;;;;;34.47;30.70;;;11.50;99.90;;;;;;5031146;28;20201;-77
2022/03/18 12:00:43;;;;;;;32.33;28.93;;;11.70;99.90;;;;;;5030462;28;20202;-78
2022/03/18 12:03:19;;;;;;;32.43;28.90;;;12.00;99.90;;;;;;5030890;28;20207;-78
2022/03/18 12:05:55;;;;;;;34.57;29.47;;;12.10;99.90;;;;;;5029997;28;20252;-77
2022/03/18 12:08:56;;;;;;;34.20;30.57;;;12.10;99.90;;;;;;5030603;28;20292;-78
2022/03/18 12:11:32;;;;;;;34.03;30.37;;;12.10;99.90;;;;;;5027431;28;20207;-78
2022/03/18 12:14:00;;;;;;;34.40;30.80;;;12.40;99.90;;;;;;5027848;28;20222;-78
2022/03/18 12:16:27;;;;;;;35.50;30.20;;;12.40;99.90;;;;;;5022487;28;20581;-78
2022/03/18 12:19:02;;;;;;;31.77;28.37;;;12.50;99.90;;;;;;5030780;28;20202;-78
2022/03/18 12:21:43;;;;;;;37.67;30.63;;;12.50;99.90;;;;;;5023323;28;20285;-78
2022/03/18 12:24:11;;;;;;;32.67;28.87;;;12.60;99.90;;;;;;5026630;28;20231;-78
2022/03/18 12:26:39;;;;;;;32.70;29.00;;;12.70;99.90;;;;;;5025719;28;20737;-79
2022/03/18 12:29:06;;;;;;;32.57;28.77;;;12.80;99.90;;;;;;5029745;28;20265;-78
2022/03/18 12:31:34;;;;;;;33.27;28.60;;;12.80;99.90;;;;;;5029294;28;20188;-78
2022/03/18 12:34:03;;;;;;;32.53;29.03;;;12.50;99.90;;;;;;5026133;28;20215;-79
2022/03/18 12:36:31;;;;;;;32.43;29.03;;;12.50;99.90;;;;;;5030442;28;20203;-78
2022/03/18 12:39:15;;;;;;;31.63;28.20;;;12.40;99.90;;;;;;5022650;28;20208;-78
2022/03/18 12:41:44;;;;;;;34.40;29.33;;;12.50;99.90;;;;;;5022749;28;20202;-78
2022/03/18 12:44:10;;;;;;;32.73;28.43;;;12.50;99.90;;;;;;5029498;28;20216;-78
2022/03/18 12:46:41;;;;;;;33.60;29.37;;;12.60;99.90;;;;;;5024641;28;20617;-78
2022/03/18 12:49:11;;;;;;;32.93;29.20;;;12.40;99.90;;;;;;5029053;28;20207;-78
2022/03/18 12:51:38;;;;;;;31.83;28.17;;;12.40;99.90;;;;;;5032029;28;20207;-78
2022/03/18 12:54:05;;;;;;;32.60;29.10;;;12.40;99.90;;;;;;5031376;28;20638;-77
2022/03/18 12:56:56;;;;;;;34.33;28.43;;;12.40;99.90;;;;;;5031349;28;20203;-78
2022/03/18 12:59:23;;;;;;;32.47;28.97;;;12.70;99.90;;;;;;5025566;28;20611;-77
2022/03/18 13:01:55;;;;;;;32.00;28.53;;;12.70;99.90;;;;;;5025481;28;20212;-78
2022/03/18 13:04:23;;;;;;;35.90;29.43;;;12.70;99.90;;;;;;5026039;28;20219;-78
2022/03/18 13:06:56;;;;;;;32.17;28.77;;;12.70;99.90;;;;;;5029386;28;20207;-78
2022/03/18 13:09:23;;;;;;;30.43;27.23;;;12.80;99.90;;;;;;5030449;28;20208;-77